Time;durP1;ratioP1;P1;durP2;ratioP2;P2;SDS_P1;SDS_P2;PMS_P1;PMS_P2;Temp;Humidity;BMP_temperature;BMP_pressure;BME280_temperature;BME280_humidity;BME280_pressure;Samples;Min_cycle;Max_cycle;Signal;HPM_P1;HPM_P2
2022/02/27 00:00:47;;;;;;;35.60;17.50;;;;;;;;;;4844604;29;20077;-75
2022/02/27 00:03:13;;;;;;;37.53;18.15;;;;;;;;;;4857808;29;20069;-75
2022/02/27 00:05:39;;;;;;;37.97;22.02;;;;;;;;;;4857501;29;20039;-75
2022/02/27 00:08:06;;;;;;;32.55;18.88;;;;;;;;;;4856872;29;20041;-75
2022/02/27 00:10:32;;;;;;;46.55;21.92;;;;;;;;;;4844944;29;20040;-75
2022/02/27 00:12:58;;;;;;;52.33;24.05;;;;;;;;;;4850708;29;20056;-75
2022/02/27 00:15:24;;;;;;;48.42;22.50;;;;;;;;;;4855688;29;20037;-75
2022/02/27 00:17:50;;;;;;;43.17;20.90;;;;;;;;;;4856811;29;20041;-76
2022/02/27 00:20:16;;;;;;;43.53;19.60;;;;;;;;;;4856775;29;20029;-75
2022/02/27 00:22:42;;;;;;;37.72;17.88;;;;;;;;;;4857901;29;20124;-75
2022/02/27 00:25:09;;;;;;;37.25;16.48;;;;;;;;;;4857208;29;20040;-76
2022/02/27 00:27:36;;;;;;;36.45;17.60;;;;;;;;;;4857930;29;20064;-76
2022/02/27 00:30:03;;;;;;;38.42;18.20;;;;;;;;;;4853734;29;20428;-76
2022/02/27 00:32:29;;;;;;;65.25;32.15;;;;;;;;;;4856815;29;20045;-76
2022/02/27 00:34:55;;;;;;;79.10;37.90;;;;;;;;;;4856305;29;20033;-75
2022/02/27 00:37:21;;;;;;;71.68;33.42;;;;;;;;;;4857172;29;20053;-75
2022/02/27 00:39:47;;;;;;;59.30;27.88;;;;;;;;;;4856845;29;20034;-75
2022/02/27 00:42:13;;;;;;;51.22;22.20;;;;;;;;;;4846045;29;20092;-76
2022/02/27 00:44:39;;;;;;;50.67;22.77;;;;;;;;;;4857061;29;20038;-75
2022/02/27 00:47:06;;;;;;;35.90;17.08;;;;;;;;;;4840238;29;20077;-76
2022/02/27 00:49:32;;;;;;;35.80;16.67;;;;;;;;;;4857233;29;20036;-75
2022/02/27 00:51:58;;;;;;;41.92;19.60;;;;;;;;;;4856879;29;20041;-76
2022/02/27 00:54:24;;;;;;;44.20;17.25;;;;;;;;;;4857104;29;20051;-76
2022/02/27 00:56:50;;;;;;;34.08;16.40;;;;;;;;;;4855299;29;20365;-76
2022/02/27 00:59:16;;;;;;;30.52;15.52;;;;;;;;;;4856953;29;20479;-75
2022/02/27 01:01:42;;;;;;;31.83;13.77;;;;;;;;;;4856806;29;20842;-75
2022/02/27 01:04:08;;;;;;;32.58;14.55;;;;;;;;;;4855908;29;20480;-75
2022/02/27 01:06:34;;;;;;;30.98;15.38;;;;;;;;;;4857159;29;20456;-76
2022/02/27 01:09:00;;;;;;;29.77;15.13;;;;;;;;;;4856710;29;20029;-75
2022/02/27 01:11:30;;;;;;;22.63;9.88;;;;;;;;;;4856949;29;20049;-76
2022/02/27 01:13:56;;;;;;;17.45;7.47;;;;;;;;;;4856872;29;20384;-75
2022/02/27 01:16:23;;;;;;;18.42;8.48;;;;;;;;;;4856945;29;20045;-75
2022/02/27 01:18:49;;;;;;;19.58;9.57;;;;;;;;;;4857949;29;20124;-75
2022/02/27 01:21:15;;;;;;;19.55;8.70;;;;;;;;;;4860893;29;20045;-75
2022/02/27 01:23:42;;;;;;;14.85;7.15;;;;;;;;;;4860463;29;20060;-75
2022/02/27 01:26:08;;;;;;;14.68;7.22;;;;;;;;;;4860404;29;20365;-75
2022/02/27 01:28:34;;;;;;;13.63;6.30;;;;;;;;;;4845686;29;20029;-75
2022/02/27 01:31:00;;;;;;;17.80;6.43;;;;;;;;;;4859949;29;20053;-75
2022/02/27 01:33:26;;;;;;;10.88;5.88;;;;;;;;;;4860299;29;20037;-75
2022/02/27 01:35:52;;;;;;;14.40;5.65;;;;;;;;;;4860076;29;20037;-75
2022/02/27 01:38:18;;;;;;;11.20;5.68;;;;;;;;;;4843208;29;20049;-75
2022/02/27 01:40:44;;;;;;;14.15;6.72;;;;;;;;;;4859890;29;20030;-75
2022/02/27 01:43:10;;;;;;;17.60;8.20;;;;;;;;;;4859832;29;20044;-75
2022/02/27 01:45:36;;;;;;;16.17;8.15;;;;;;;;;;4860431;29;20033;-75
2022/02/27 01:48:02;;;;;;;20.85;9.95;;;;;;;;;;4860230;29;20052;-75
2022/02/27 01:50:28;;;;;;;21.63;11.32;;;;;;;;;;4860287;29;20061;-76
2022/02/27 01:52:54;;;;;;;28.77;11.95;;;;;;;;;;4850618;29;20042;-75
2022/02/27 01:55:20;;;;;;;23.55;11.27;;;;;;;;;;4860214;29;20044;-75
2022/02/27 01:57:46;;;;;;;24.67;12.30;;;;;;;;;;4859610;29;20049;-75
2022/02/27 02:00:14;;;;;;;23.88;11.80;;;;;;;;;;4860244;29;20040;-76
2022/02/27 02:02:40;;;;;;;25.95;11.98;;;;;;;;;;4859950;29;20373;-75
2022/02/27 02:05:06;;;;;;;31.02;13.88;;;;;;;;;;4859723;29;20033;-76
2022/02/27 02:07:32;;;;;;;33.35;15.82;;;;;;;;;;4859399;29;20745;-75
2022/02/27 02:09:58;;;;;;;51.55;25.55;;;;;;;;;;4859696;29;20150;-75
2022/02/27 02:12:24;;;;;;;48.53;20.40;;;;;;;;;;4859300;29;20042;-74
2022/02/27 02:14:50;;;;;;;41.65;20.10;;;;;;;;;;4859939;29;20038;-75
2022/02/27 02:17:16;;;;;;;44.25;20.30;;;;;;;;;;4859450;29;20045;-75
2022/02/27 02:19:42;;;;;;;36.30;17.55;;;;;;;;;;4852534;29;20073;-76
2022/02/27 02:22:08;;;;;;;32.55;15.27;;;;;;;;;;4850626;29;20117;-75
2022/02/27 02:24:34;;;;;;;27.35;12.88;;;;;;;;;;4850348;29;20082;-75
2022/02/27 02:27:00;;;;;;;27.45;12.60;;;;;;;;;;4853053;29;20054;-76
2022/02/27 02:29:26;;;;;;;26.13;11.80;;;;;;;;;;4857886;29;20041;-75
2022/02/27 02:31:54;;;;;;;20.95;10.07;;;;;;;;;;4858824;29;20112;-75
2022/02/27 02:34:21;;;;;;;23.73;11.43;;;;;;;;;;4846777;29;20046;-75
2022/02/27 02:36:48;;;;;;;23.92;11.75;;;;;;;;;;4859352;29;20090;-74
2022/02/27 02:39:16;;;;;;;23.30;11.73;;;;;;;;;;4858515;29;20044;-75
2022/02/27 02:41:43;;;;;;;29.02;12.40;;;;;;;;;;4859724;29;20038;-75
2022/02/27 02:44:09;;;;;;;25.40;12.18;;;;;;;;;;4858602;29;20041;-75
2022/02/27 02:46:35;;;;;;;26.40;13.32;;;;;;;;;;4859454;29;20128;-75
2022/02/27 02:49:02;;;;;;;32.88;14.65;;;;;;;;;;4858754;29;20452;-75
2022/02/27 02:51:28;;;;;;;23.33;11.98;;;;;;;;;;4859243;29;20058;-75
2022/02/27 02:53:54;;;;;;;24.17;12.10;;;;;;;;;;4858780;29;20040;-75
2022/02/27 02:56:20;;;;;;;21.35;10.60;;;;;;;;;;4859345;29;20042;-75
2022/02/27 02:58:46;;;;;;;19.88;9.52;;;;;;;;;;4856004;29;20098;-75
2022/02/27 03:01:13;;;;;;;17.67;9.48;;;;;;;;;;4855961;29;20041;-75
2022/02/27 03:03:40;;;;;;;20.67;9.25;;;;;;;;;;4858738;29;20029;-76
2022/02/27 03:06:08;;;;;;;17.70;9.02;;;;;;;;;;4850551;29;20386;-75
2022/02/27 03:08:35;;;;;;;16.95;7.63;;;;;;;;;;4858965;29;20773;-75
2022/02/27 03:11:01;;;;;;;15.35;7.22;;;;;;;;;;4856432;29;20094;-75
2022/02/27 03:13:27;;;;;;;20.42;8.35;;;;;;;;;;4858650;29;20049;-74
2022/02/27 03:15:53;;;;;;;17.08;8.40;;;;;;;;;;4858307;29;20041;-75
2022/02/27 03:18:20;;;;;;;15.32;7.90;;;;;;;;;;4858993;29;20037;-75
2022/02/27 03:20:46;;;;;;;19.45;7.47;;;;;;;;;;4858002;29;20041;-75
2022/02/27 03:23:12;;;;;;;18.08;7.28;;;;;;;;;;4859054;29;20909;-74
2022/02/27 03:25:38;;;;;;;17.20;7.95;;;;;;;;;;4857771;29;20651;-75
2022/02/27 03:28:04;;;;;;;18.80;8.32;;;;;;;;;;4858150;29;20045;-74
2022/02/27 03:30:30;;;;;;;15.93;8.73;;;;;;;;;;4857097;29;20030;-75
2022/02/27 03:32:56;;;;;;;17.05;9.00;;;;;;;;;;4858234;29;20045;-74
2022/02/27 03:35:23;;;;;;;19.35;8.98;;;;;;;;;;4856619;29;20026;-74
2022/02/27 03:37:50;;;;;;;16.15;8.05;;;;;;;;;;4855585;29;20120;-75
2022/02/27 03:40:16;;;;;;;16.23;7.25;;;;;;;;;;4857567;29;20033;-75
2022/02/27 03:42:44;;;;;;;19.15;7.22;;;;;;;;;;4858621;29;20129;-75
2022/02/27 03:45:10;;;;;;;15.60;6.60;;;;;;;;;;4858028;29;20170;-74
2022/02/27 03:47:36;;;;;;;13.00;6.43;;;;;;;;;;4858154;29;20038;-75
2022/02/27 03:50:02;;;;;;;15.75;6.40;;;;;;;;;;4857890;29;20038;-75
2022/02/27 03:52:28;;;;;;;14.07;6.60;;;;;;;;;;4857262;29;20299;-75
2022/02/27 03:54:54;;;;;;;10.75;5.25;;;;;;;;;;4858150;29;20066;-75
2022/02/27 03:57:20;;;;;;;15.52;6.95;;;;;;;;;;4857515;29;20065;-76
2022/02/27 03:59:46;;;;;;;16.23;7.40;;;;;;;;;;4858124;29;20045;-75
2022/02/27 04:02:12;;;;;;;15.90;7.78;;;;;;;;;;4857242;29;20105;-76
2022/02/27 04:04:38;;;;;;;16.60;7.50;;;;;;;;;;4858021;29;20984;-74
2022/02/27 04:07:04;;;;;;;17.45;8.48;;;;;;;;;;4832448;29;20065;-75
2022/02/27 04:09:30;;;;;;;22.05;9.00;;;;;;;;;;4857187;29;20029;-75
2022/02/27 04:11:56;;;;;;;19.38;9.60;;;;;;;;;;4857328;29;20041;-74
2022/02/27 04:14:22;;;;;;;20.05;10.25;;;;;;;;;;4857836;29;20098;-75
2022/02/27 04:16:49;;;;;;;17.48;9.00;;;;;;;;;;4857470;29;20486;-75
2022/02/27 04:19:15;;;;;;;23.38;9.27;;;;;;;;;;4857551;29;20034;-75
2022/02/27 04:21:41;;;;;;;17.95;9.25;;;;;;;;;;4856841;29;20037;-75
2022/02/27 04:24:07;;;;;;;21.52;9.90;;;;;;;;;;4857709;29;20496;-75
2022/02/27 04:26:33;;;;;;;23.30;9.93;;;;;;;;;;4857405;29;20037;-75
2022/02/27 04:28:59;;;;;;;24.80;10.32;;;;;;;;;;4856869;29;20556;-75
2022/02/27 04:31:25;;;;;;;18.33;9.27;;;;;;;;;;4856794;29;20069;-75
2022/02/27 04:33:51;;;;;;;20.52;8.77;;;;;;;;;;4856840;29;20384;-75
2022/02/27 04:36:17;;;;;;;19.98;8.80;;;;;;;;;;4857450;29;20045;-75
2022/02/27 04:38:43;;;;;;;19.80;9.80;;;;;;;;;;4857073;29;20116;-75
2022/02/27 04:41:09;;;;;;;20.75;10.23;;;;;;;;;;4857404;29;20129;-75
2022/02/27 04:43:35;;;;;;;22.80;11.32;;;;;;;;;;4856934;29;20725;-75
2022/02/27 04:46:02;;;;;;;22.55;11.00;;;;;;;;;;4857433;29;20033;-75
2022/02/27 04:48:28;;;;;;;20.77;10.40;;;;;;;;;;4856654;29;20033;-75
2022/02/27 04:50:54;;;;;;;17.92;8.88;;;;;;;;;;4857321;29;20538;-75
2022/02/27 04:53:21;;;;;;;22.77;9.65;;;;;;;;;;4856004;29;20038;-75
2022/02/27 04:55:47;;;;;;;19.65;9.77;;;;;;;;;;4847142;29;20514;-75
2022/02/27 04:58:13;;;;;;;20.63;9.95;;;;;;;;;;4856474;29;20056;-75
2022/02/27 05:00:40;;;;;;;20.27;10.18;;;;;;;;;;4855855;29;20038;-75
2022/02/27 05:03:06;;;;;;;18.55;8.57;;;;;;;;;;4856635;29;20077;-75
2022/02/27 05:05:32;;;;;;;17.65;9.35;;;;;;;;;;4856359;29;20409;-75
2022/02/27 05:07:58;;;;;;;18.27;8.82;;;;;;;;;;4857195;29;20038;-75
2022/02/27 05:10:24;;;;;;;17.88;8.20;;;;;;;;;;4856042;29;20040;-74
2022/02/27 05:12:50;;;;;;;17.70;8.27;;;;;;;;;;4857488;29;20037;-75
2022/02/27 05:15:16;;;;;;;16.60;7.05;;;;;;;;;;4856492;29;20091;-75
2022/02/27 05:17:42;;;;;;;17.48;7.18;;;;;;;;;;4857284;29;20073;-75
2022/02/27 05:20:08;;;;;;;15.40;7.00;;;;;;;;;;4856183;29;20046;-75
2022/02/27 05:22:34;;;;;;;14.82;7.13;;;;;;;;;;4849607;29;20560;-75
2022/02/27 05:25:00;;;;;;;16.00;7.40;;;;;;;;;;4856621;29;20483;-74
2022/02/27 05:27:26;;;;;;;12.23;6.35;;;;;;;;;;4857272;29;20042;-75
2022/02/27 05:29:52;;;;;;;15.35;6.53;;;;;;;;;;4856246;29;20037;-74
2022/02/27 05:32:18;;;;;;;13.07;6.82;;;;;;;;;;4856981;29;20041;-75
2022/02/27 05:34:44;;;;;;;14.10;6.00;;;;;;;;;;4856457;29;20085;-75
2022/02/27 05:37:10;;;;;;;15.98;6.45;;;;;;;;;;4856670;29;20049;-75
2022/02/27 05:39:36;;;;;;;14.48;7.43;;;;;;;;;;4856667;29;20041;-74
2022/02/27 05:42:02;;;;;;;15.32;8.45;;;;;;;;;;4855332;29;20093;-75
2022/02/27 05:44:28;;;;;;;18.58;8.10;;;;;;;;;;4856542;29;20183;-74
2022/02/27 05:46:55;;;;;;;16.40;9.07;;;;;;;;;;4852158;29;20112;-75
2022/02/27 05:49:21;;;;;;;17.90;9.20;;;;;;;;;;4856622;29;20033;-75
2022/02/27 05:51:47;;;;;;;17.85;10.10;;;;;;;;;;4856314;29;20427;-75
2022/02/27 05:54:14;;;;;;;22.00;9.43;;;;;;;;;;4856889;29;20117;-75
2022/02/27 05:56:40;;;;;;;17.75;8.60;;;;;;;;;;4856327;29;20049;-75
2022/02/27 05:59:06;;;;;;;17.50;8.60;;;;;;;;;;4856481;29;20053;-75
2022/02/27 06:01:32;;;;;;;18.55;8.98;;;;;;;;;;4855855;29;20055;-75
2022/02/27 06:03:58;;;;;;;14.35;6.88;;;;;;;;;;4856333;29;20404;-75
2022/02/27 06:06:24;;;;;;;17.30;7.25;;;;;;;;;;4858158;29;20041;-75
2022/02/27 06:08:50;;;;;;;17.98;8.07;;;;;;;;;;4859938;29;20033;-75
2022/02/27 06:11:16;;;;;;;13.75;6.00;;;;;;;;;;4859438;29;20473;-74
2022/02/27 06:13:42;;;;;;;18.33;7.03;;;;;;;;;;4845914;29;20029;-75
2022/02/27 06:16:08;;;;;;;14.50;8.15;;;;;;;;;;4851760;29;20092;-75
2022/02/27 06:18:34;;;;;;;18.65;7.18;;;;;;;;;;4859467;29;20042;-75
2022/02/27 06:21:00;;;;;;;16.58;7.50;;;;;;;;;;4858896;29;20042;-75
2022/02/27 06:23:26;;;;;;;16.45;7.78;;;;;;;;;;4856503;29;20052;-75
2022/02/27 06:25:52;;;;;;;21.45;10.10;;;;;;;;;;4859263;29;20688;-75
2022/02/27 06:28:18;;;;;;;18.02;9.20;;;;;;;;;;4857095;29;20037;-75
2022/02/27 06:30:44;;;;;;;24.42;10.05;;;;;;;;;;4863514;29;20048;-75
2022/02/27 06:33:10;;;;;;;21.83;10.20;;;;;;;;;;4865230;29;20480;-75
2022/02/27 06:35:36;;;;;;;20.63;9.80;;;;;;;;;;4859369;29;20042;-75
2022/02/27 06:38:02;;;;;;;16.27;8.05;;;;;;;;;;4848582;29;20497;-75
2022/02/27 06:40:28;;;;;;;18.27;8.63;;;;;;;;;;4851942;29;20062;-75
2022/02/27 06:42:54;;;;;;;18.20;7.82;;;;;;;;;;4851941;29;20072;-75
2022/02/27 06:45:20;;;;;;;13.98;7.15;;;;;;;;;;4859060;29;20029;-75
2022/02/27 06:47:46;;;;;;;15.05;7.07;;;;;;;;;;4858554;29;20858;-75
2022/02/27 06:50:12;;;;;;;13.95;6.95;;;;;;;;;;4858941;29;20049;-75
2022/02/27 06:52:39;;;;;;;16.98;7.22;;;;;;;;;;4862763;29;20563;-75
2022/02/27 06:55:05;;;;;;;15.20;7.05;;;;;;;;;;4852733;29;20037;-75
2022/02/27 06:57:31;;;;;;;14.40;7.70;;;;;;;;;;4867262;29;20054;-75
2022/02/27 06:59:57;;;;;;;15.63;8.55;;;;;;;;;;4866923;29;20092;-74
2022/02/27 07:02:23;;;;;;;18.48;8.60;;;;;;;;;;4859620;29;20040;-74
2022/02/27 07:04:49;;;;;;;17.60;8.25;;;;;;;;;;4855737;29;20041;-74
2022/02/27 07:07:15;;;;;;;15.38;7.57;;;;;;;;;;4855050;29;20041;-75
2022/02/27 07:09:41;;;;;;;15.77;8.07;;;;;;;;;;4850988;29;20042;-75
2022/02/27 07:12:08;;;;;;;14.65;7.85;;;;;;;;;;4859110;29;20048;-75
2022/02/27 07:14:34;;;;;;;15.07;8.45;;;;;;;;;;4858082;29;20519;-75
2022/02/27 07:17:00;;;;;;;15.27;7.85;;;;;;;;;;4851105;29;20077;-75
2022/02/27 07:19:26;;;;;;;14.32;8.23;;;;;;;;;;4856882;29;20064;-75
2022/02/27 07:21:52;;;;;;;14.77;8.13;;;;;;;;;;4854927;29;20034;-75
2022/02/27 07:24:18;;;;;;;15.82;7.72;;;;;;;;;;4853761;29;20038;-75
2022/02/27 07:26:44;;;;;;;18.90;9.40;;;;;;;;;;4862337;29;20044;-75
2022/02/27 07:29:10;;;;;;;23.38;10.52;;;;;;;;;;4853595;29;20068;-75
2022/02/27 07:31:36;;;;;;;25.98;15.15;;;;;;;;;;4867335;29;20126;-75
2022/02/27 07:34:02;;;;;;;29.70;14.38;;;;;;;;;;4860245;29;20042;-74
2022/02/27 07:36:28;;;;;;;29.77;16.13;;;;;;;;;;4856405;29;20072;-74
2022/02/27 07:38:55;;;;;;;24.45;13.38;;;;;;;;;;4854650;29;20491;-75
2022/02/27 07:41:21;;;;;;;23.65;12.75;;;;;;;;;;4852301;29;20042;-75
2022/02/27 07:43:48;;;;;;;26.13;12.45;;;;;;;;;;4857644;29;20041;-75
2022/02/27 07:46:14;;;;;;;25.17;12.43;;;;;;;;;;4856753;29;20149;-75
2022/02/27 07:48:40;;;;;;;25.05;10.52;;;;;;;;;;4849300;29;20073;-75
2022/02/27 07:51:06;;;;;;;24.73;10.43;;;;;;;;;;4854778;29;20076;-74
2022/02/27 07:53:32;;;;;;;16.75;8.13;;;;;;;;;;4861474;29;20794;-75
2022/02/27 07:55:58;;;;;;;16.92;9.05;;;;;;;;;;4854973;29;20047;-74
2022/02/27 07:58:24;;;;;;;19.35;10.18;;;;;;;;;;4847331;29;20408;-75
2022/02/27 08:00:50;;;;;;;17.88;9.77;;;;;;;;;;4856261;29;20038;-75
2022/02/27 08:03:16;;;;;;;22.15;11.32;;;;;;;;;;4856809;29;20084;-75
2022/02/27 08:05:42;;;;;;;17.85;8.98;;;;;;;;;;4850731;29;20022;-74
2022/02/27 08:08:08;;;;;;;21.67;11.07;;;;;;;;;;4856359;29;20045;-74
2022/02/27 08:10:34;;;;;;;15.70;9.38;;;;;;;;;;4842363;29;20153;-74
2022/02/27 08:13:00;;;;;;;18.75;9.98;;;;;;;;;;4851200;29;20061;-74
2022/02/27 08:15:26;;;;;;;17.65;9.07;;;;;;;;;;4850903;29;20057;-74
2022/02/27 08:17:53;;;;;;;16.55;9.27;;;;;;;;;;4851892;29;20568;-74
2022/02/27 08:20:19;;;;;;;16.95;8.13;;;;;;;;;;4842057;29;20040;-74
2022/02/27 08:22:45;;;;;;;16.05;7.95;;;;;;;;;;4854968;29;20041;-74
2022/02/27 08:25:12;;;;;;;13.57;5.93;;;;;;;;;;4855473;29;20036;-74
2022/02/27 08:27:38;;;;;;;12.13;6.45;;;;;;;;;;4851921;29;20030;-75
2022/02/27 08:30:05;;;;;;;16.98;7.57;;;;;;;;;;4854458;29;20112;-75
2022/02/27 08:32:31;;;;;;;13.32;7.05;;;;;;;;;;4855794;29;20053;-76
2022/02/27 08:34:59;;;;;;;14.73;7.30;;;;;;;;;;4853773;29;20116;-76
2022/02/27 08:37:25;;;;;;;15.88;7.32;;;;;;;;;;4853588;29;20064;-76
2022/02/27 08:39:51;;;;;;;13.10;6.65;;;;;;;;;;4853425;29;20033;-76
2022/02/27 08:42:17;;;;;;;12.65;6.63;;;;;;;;;;4837940;29;20108;-76
2022/02/27 08:44:43;;;;;;;15.82;6.80;;;;;;;;;;4855280;29;20040;-75
2022/02/27 08:47:09;;;;;;;13.30;5.20;;;;;;;;;;4847204;29;20487;-75
2022/02/27 08:49:35;;;;;;;12.73;5.60;;;;;;;;;;4850786;29;20034;-75
2022/02/27 08:52:02;;;;;;;15.43;7.05;;;;;;;;;;4839537;29;20046;-74
2022/02/27 08:54:30;;;;;;;15.35;7.18;;;;;;;;;;4855558;29;20040;-74
2022/02/27 08:56:56;;;;;;;14.95;6.65;;;;;;;;;;4848747;29;20042;-74
2022/02/27 08:59:23;;;;;;;16.15;7.22;;;;;;;;;;4853741;29;20536;-75
2022/02/27 09:01:49;;;;;;;15.55;7.03;;;;;;;;;;4855169;29;20065;-75
2022/02/27 09:04:15;;;;;;;12.15;6.22;;;;;;;;;;4844993;29;20048;-74
2022/02/27 09:06:41;;;;;;;17.30;7.78;;;;;;;;;;4853067;29;20037;-74
2022/02/27 09:09:07;;;;;;;14.75;6.03;;;;;;;;;;4852602;29;20422;-74
2022/02/27 09:11:33;;;;;;;13.90;6.80;;;;;;;;;;4849379;29;20038;-74
2022/02/27 09:13:59;;;;;;;16.67;7.13;;;;;;;;;;4832964;29;20485;-75
2022/02/27 09:16:25;;;;;;;15.15;6.38;;;;;;;;;;4850759;29;20051;-75
2022/02/27 09:18:51;;;;;;;15.35;7.20;;;;;;;;;;4857605;29;20117;-75
2022/02/27 09:21:17;;;;;;;15.98;6.78;;;;;;;;;;4849278;29;20056;-75
2022/02/27 09:23:43;;;;;;;12.80;6.72;;;;;;;;;;4847573;29;20117;-75
2022/02/27 09:26:09;;;;;;;15.65;7.55;;;;;;;;;;4852659;29;20759;-76
2022/02/27 09:28:36;;;;;;;20.02;7.15;;;;;;;;;;4847519;29;20838;-75
2022/02/27 09:31:02;;;;;;;12.23;7.00;;;;;;;;;;4852074;29;20044;-75
2022/02/27 09:33:30;;;;;;;14.77;7.35;;;;;;;;;;4850689;29;20037;-75
2022/02/27 09:35:56;;;;;;;11.68;6.60;;;;;;;;;;4849409;29;20029;-75
2022/02/27 09:38:22;;;;;;;12.63;6.32;;;;;;;;;;4855270;29;20033;-75
2022/02/27 09:40:49;;;;;;;12.15;7.72;;;;;;;;;;4846837;29;20063;-75
2022/02/27 09:43:17;;;;;;;13.02;6.25;;;;;;;;;;4855300;29;20037;-74
2022/02/27 09:45:44;;;;;;;13.52;6.68;;;;;;;;;;4860300;29;20029;-74
2022/02/27 09:48:11;;;;;;;13.68;6.55;;;;;;;;;;4859833;29;20615;-74
2022/02/27 09:50:37;;;;;;;14.75;6.07;;;;;;;;;;4858223;29;20065;-74
2022/02/27 09:53:03;;;;;;;11.00;6.15;;;;;;;;;;4851321;29;20053;-74
2022/02/27 09:55:29;;;;;;;14.48;6.43;;;;;;;;;;4852557;29;20029;-74
2022/02/27 09:57:55;;;;;;;13.95;6.43;;;;;;;;;;4854229;29;20076;-74
2022/02/27 10:00:21;;;;;;;14.13;6.88;;;;;;;;;;4861591;29;20114;-74
2022/02/27 10:03:06;;;;;;;15.23;6.82;;;;;;;;;;4849037;29;20041;-75
2022/02/27 10:05:33;;;;;;;13.05;6.47;;;;;;;;;;4841366;29;20051;-75
2022/02/27 10:08:00;;;;;;;14.32;7.13;;;;;;;;;;4861551;29;20122;-75
2022/02/27 10:10:26;;;;;;;11.65;6.47;;;;;;;;;;4856919;29;20036;-75
2022/02/27 10:12:52;;;;;;;12.55;6.00;;;;;;;;;;4848319;29;20132;-75
2022/02/27 10:15:19;;;;;;;11.43;5.13;;;;;;;;;;4859320;29;20041;-75
2022/02/27 10:17:46;;;;;;;10.00;5.63;;;;;;;;;;4855065;29;20746;-75
2022/02/27 10:20:14;;;;;;;13.05;5.55;;;;;;;;;;4856354;29;20033;-76
2022/02/27 10:22:47;;;;;;;11.52;5.32;;;;;;;;;;4858399;29;20050;-75
2022/02/27 10:25:33;;;;;;;13.30;5.93;;;;;;;;;;4853770;29;20037;-75
2022/02/27 10:28:02;;;;;;;10.07;5.40;;;;;;;;;;4855337;29;20057;-75
2022/02/27 10:30:30;;;;;;;10.38;5.78;;;;;;;;;;4843250;29;20025;-76
2022/02/27 10:33:02;;;;;;;8.85;4.68;;;;;;;;;;4858467;29;20058;-76
2022/02/27 10:35:47;;;;;;;13.82;5.25;;;;;;;;;;4849076;29;20026;-76
2022/02/27 10:38:13;;;;;;;13.00;5.95;;;;;;;;;;4860024;29;20037;-76
2022/02/27 10:40:40;;;;;;;12.18;5.50;;;;;;;;;;4856667;29;20025;-75
2022/02/27 10:43:08;;;;;;;12.52;5.80;;;;;;;;;;4861388;29;20045;-75
2022/02/27 10:45:34;;;;;;;11.07;5.50;;;;;;;;;;4850061;29;20129;-76
2022/02/27 10:48:02;;;;;;;13.20;6.25;;;;;;;;;;4865076;29;20073;-76
2022/02/27 10:50:28;;;;;;;12.10;5.78;;;;;;;;;;4857140;29;20068;-76
2022/02/27 10:52:54;;;;;;;12.23;5.90;;;;;;;;;;4848101;29;20038;-75
2022/02/27 10:55:20;;;;;;;13.23;6.07;;;;;;;;;;4846697;29;20048;-76
2022/02/27 10:57:50;;;;;;;16.02;7.10;;;;;;;;;;4857110;29;20062;-76
2022/02/27 11:00:18;;;;;;;10.98;5.70;;;;;;;;;;4858563;29;20375;-76
2022/02/27 11:02:44;;;;;;;10.15;5.68;;;;;;;;;;4851417;29;20034;-76
2022/02/27 11:05:12;;;;;;;11.13;5.63;;;;;;;;;;4850313;29;20544;-75
2022/02/27 11:07:39;;;;;;;10.98;5.53;;;;;;;;;;4848053;29;20034;-76
2022/02/27 11:10:06;;;;;;;12.45;5.47;;;;;;;;;;4860241;29;20630;-76
2022/02/27 11:12:32;;;;;;;12.35;5.55;;;;;;;;;;4870712;29;20048;-76
2022/02/27 11:14:59;;;;;;;11.85;5.78;;;;;;;;;;4873198;29;20033;-76
2022/02/27 11:17:25;;;;;;;11.73;5.70;;;;;;;;;;4877471;29;20051;-76
2022/02/27 11:19:51;;;;;;;13.68;6.28;;;;;;;;;;4857130;29;20043;-76
2022/02/27 11:22:19;;;;;;;12.68;6.43;;;;;;;;;;4857346;29;20050;-75
2022/02/27 11:24:45;;;;;;;13.00;5.82;;;;;;;;;;4835055;29;20029;-75
2022/02/27 11:27:14;;;;;;;9.98;5.63;;;;;;;;;;4865489;29;20119;-76
2022/02/27 11:29:41;;;;;;;13.05;7.10;;;;;;;;;;4858488;29;20089;-76
2022/02/27 11:32:07;;;;;;;11.20;5.40;;;;;;;;;;4848085;29;20064;-75
2022/02/27 11:34:39;;;;;;;17.92;6.60;;;;;;;;;;4868557;29;20064;-76
2022/02/27 11:37:05;;;;;;;;;;;;;;;;;;4861272;29;20094;-77
2022/02/27 11:42:40;;;;;;;8.65;4.65;;;;;;;;;;4857093;29;20161;-76
2022/02/27 11:45:08;;;;;;;10.85;4.75;;;;;;;;;;4846034;29;20476;-76
2022/02/27 11:47:48;;;;;;;15.23;5.80;;;;;;;;;;4860303;29;20037;-76
2022/02/27 11:50:25;;;;;;;7.80;3.92;;;;;;;;;;4860541;29;20040;-76
2022/02/27 11:52:51;;;;;;;8.25;4.25;;;;;;;;;;4852303;29;20503;-76
2022/02/27 11:55:42;;;;;;;11.23;4.45;;;;;;;;;;4866922;29;20033;-76
2022/02/27 11:58:19;;;;;;;10.07;4.60;;;;;;;;;;4858718;29;20084;-76
2022/02/27 12:00:45;;;;;;;11.10;4.25;;;;;;;;;;4846730;29;20425;-76
2022/02/27 12:03:29;;;;;;;9.23;3.47;;;;;;;;;;4851218;29;20064;-76
2022/02/27 12:05:56;;;;;;;10.65;3.90;;;;;;;;;;4845259;29;20505;-76
2022/02/27 12:08:55;;;;;;;9.18;4.30;;;;;;;;;;4860909;29;20044;-76
2022/02/27 12:11:27;;;;;;;9.63;3.55;;;;;;;;;;4823789;29;20400;-76
2022/02/27 12:13:53;;;;;;;;;;;;;;;;;;4867040;29;20033;-76
2022/02/27 12:16:19;;;;;;;12.27;3.83;;;;;;;;;;4860563;29;20349;-75
2022/02/27 12:18:46;;;;;;;7.75;3.38;;;;;;;;;;4854398;29;20045;-76
2022/02/27 12:21:12;;;;;;;9.82;3.80;;;;;;;;;;4849357;29;20034;-76
2022/02/27 12:23:41;;;;;;;9.93;3.65;;;;;;;;;;4864219;29;20109;-76
2022/02/27 12:26:28;;;;;;;9.45;4.15;;;;;;;;;;4867158;29;20056;-76
2022/02/27 12:28:54;;;;;;;9.38;4.45;;;;;;;;;;4820943;29;20399;-76
2022/02/27 12:31:33;;;;;;;8.15;3.55;;;;;;;;;;4842057;29;20038;-76
2022/02/27 12:34:00;;;;;;;11.25;4.25;;;;;;;;;;4855643;29;20064;-76
2022/02/27 12:36:26;;;;;;;8.15;3.97;;;;;;;;;;4847425;29;20042;-75
2022/02/27 12:39:04;;;;;;;9.50;3.80;;;;;;;;;;4857143;29;20129;-75
2022/02/27 12:41:32;;;;;;;8.18;4.00;;;;;;;;;;4856954;29;20368;-76
2022/02/27 12:43:59;;;;;;;11.80;3.60;;;;;;;;;;4851446;29;20058;-75
2022/02/27 12:46:26;;;;;;;8.15;3.70;;;;;;;;;;4865103;29;20528;-76
2022/02/27 12:51:37;;;;;;;8.52;3.22;;;;;;;;;;4858508;29;20073;-75
2022/02/27 12:54:09;;;;;;;9.75;3.60;;;;;;;;;;4852105;29;20051;-76
2022/02/27 12:56:35;;;;;;;;;;;;;;;;;;4856295;29;20592;-76
2022/02/27 12:59:01;;;;;;;9.60;3.95;;;;;;;;;;4860787;29;19970;-76
2022/02/27 13:01:32;;;;;;;7.88;3.55;;;;;;;;;;4838575;29;20073;-76
2022/02/27 13:04:05;;;;;;;6.90;2.88;;;;;;;;;;4858021;29;20208;-76
2022/02/27 13:06:34;;;;;;;10.23;3.53;;;;;;;;;;4850237;29;20128;-75
2022/02/27 13:09:01;;;;;;;9.18;3.25;;;;;;;;;;4855665;29;20425;-76
2022/02/27 13:11:47;;;;;;;10.32;3.67;;;;;;;;;;4852035;29;20037;-76
2022/02/27 13:14:13;;;;;;;8.25;3.10;;;;;;;;;;4860188;29;20057;-76
2022/02/27 13:16:39;;;;;;;8.05;3.42;;;;;;;;;;4859422;29;20076;-76
2022/02/27 13:19:06;;;;;;;7.45;3.63;;;;;;;;;;4857799;29;20034;-76
2022/02/27 13:21:32;;;;;;;8.80;3.15;;;;;;;;;;4865658;29;20037;-76
2022/02/27 13:23:58;;;;;;;11.23;3.85;;;;;;;;;;4865847;29;20030;-76
2022/02/27 13:26:25;;;;;;;9.15;2.95;;;;;;;;;;4866041;29;20041;-76
2022/02/27 13:28:54;;;;;;;12.13;3.97;;;;;;;;;;4867396;29;20030;-76
2022/02/27 13:31:21;;;;;;;10.32;3.80;;;;;;;;;;4852127;29;20041;-75
2022/02/27 13:33:48;;;;;;;10.43;4.60;;;;;;;;;;4851919;29;20048;-76
2022/02/27 13:36:14;;;;;;;11.77;2.97;;;;;;;;;;4862895;29;20046;-76
2022/02/27 13:38:40;;;;;;;8.23;3.25;;;;;;;;;;4867663;29;20048;-76
2022/02/27 13:41:06;;;;;;;7.15;2.90;;;;;;;;;;4858400;29;20052;-76
2022/02/27 13:43:38;;;;;;;9.50;3.78;;;;;;;;;;4859157;29;20026;-76
2022/02/27 13:46:06;;;;;;;11.00;3.28;;;;;;;;;;4860850;29;20044;-76
2022/02/27 13:48:37;;;;;;;10.70;3.83;;;;;;;;;;4856290;29;20044;-76
2022/02/27 13:51:04;;;;;;;7.80;3.35;;;;;;;;;;4856198;29;20042;-76
2022/02/27 13:53:32;;;;;;;8.50;3.70;;;;;;;;;;4860044;29;20040;-76
2022/02/27 13:56:11;;;;;;;8.38;3.70;;;;;;;;;;4859109;29;20038;-76
2022/02/27 13:58:37;;;;;;;11.20;4.03;;;;;;;;;;4851470;29;20052;-76
2022/02/27 14:01:05;;;;;;;7.15;3.60;;;;;;;;;;4845842;29;20053;-76
2022/02/27 14:03:38;;;;;;;9.82;3.85;;;;;;;;;;4869246;29;20372;-76
2022/02/27 14:06:04;;;;;;;8.98;3.58;;;;;;;;;;4871342;29;20041;-76
2022/02/27 14:08:31;;;;;;;10.82;3.85;;;;;;;;;;4842716;29;20392;-76
2022/02/27 14:11:16;;;;;;;6.65;3.42;;;;;;;;;;4859607;29;20059;-76
2022/02/27 14:13:47;;;;;;;10.25;3.47;;;;;;;;;;4857747;29;20040;-76
2022/02/27 14:16:25;;;;;;;11.20;3.55;;;;;;;;;;4850400;29;20121;-76
2022/02/27 14:18:52;;;;;;;8.30;3.60;;;;;;;;;;4859856;29;20031;-76
2022/02/27 14:21:25;;;;;;;9.15;2.97;;;;;;;;;;4860390;29;20045;-76
2022/02/27 14:23:56;;;;;;;5.88;2.60;;;;;;;;;;4868885;29;20080;-76
2022/02/27 14:26:22;;;;;;;8.68;3.63;;;;;;;;;;4864867;29;20037;-76
2022/02/27 14:28:55;;;;;;;13.48;3.95;;;;;;;;;;4873372;29;20033;-76
2022/02/27 14:31:35;;;;;;;10.77;3.50;;;;;;;;;;4868237;29;20045;-76
2022/02/27 14:34:01;;;;;;;8.95;3.17;;;;;;;;;;4855624;29;20033;-76